Time;durP1;ratioP1;P1;durP2;ratioP2;P2;SDS_P1;SDS_P2;PMS_P1;PMS_P2;Temp;Humidity;BMP_temperature;BMP_pressure;BME280_temperature;BME280_humidity;BME280_pressure;Samples;Min_cycle;Max_cycle;Signal;HPM_P1;HPM_P2
2023/03/25 00:00:20;;;;;;;15.75;2.38;;;10.50;99.90;;;;;;6277392;22;20058;-93
2023/03/25 00:02:50;;;;;;;11.93;1.80;;;10.50;99.90;;;;;;6275991;22;20015;-92
2023/03/25 00:05:18;;;;;;;16.02;2.28;;;10.50;99.90;;;;;;6277787;22;20007;-93
2023/03/25 00:07:47;;;;;;;10.75;2.00;;;10.50;99.90;;;;;;6277466;22;20016;-93
2023/03/25 00:10:13;;;;;;;12.93;2.00;;;10.50;99.90;;;;;;6277190;22;20011;-92
2023/03/25 00:12:39;;;;;;;15.52;2.05;;;10.50;99.90;;;;;;6277346;22;20033;-92
2023/03/25 00:15:10;;;;;;;17.15;2.50;;;10.50;99.90;;;;;;6276470;22;20531;-93
2023/03/25 00:17:37;;;;;;;10.05;1.85;;;10.50;99.90;;;;;;6276085;22;20091;-93
2023/03/25 00:20:10;;;;;;;14.20;2.13;;;10.50;99.90;;;;;;6277416;22;20043;-93
2023/03/25 00:22:40;;;;;;;14.77;2.55;;;10.50;99.90;;;;;;6277884;22;20016;-93
2023/03/25 00:25:15;;;;;;;11.38;2.20;;;10.40;99.90;;;;;;6277381;22;20091;-92
2023/03/25 00:27:42;;;;;;;13.70;2.60;;;10.40;99.90;;;;;;6274862;22;20011;-93
2023/03/25 00:30:09;;;;;;;14.13;2.50;;;10.40;99.90;;;;;;6277501;22;20015;-93
2023/03/25 00:32:35;;;;;;;13.80;2.33;;;10.40;99.90;;;;;;6278054;22;20037;-95
2023/03/25 00:35:00;;;;;;;15.40;2.35;;;10.40;99.90;;;;;;6277343;22;20079;-94
2023/03/25 00:37:26;;;;;;;12.77;2.00;;;10.40;99.90;;;;;;6276277;22;20026;-95
2023/03/25 00:39:52;;;;;;;12.55;2.28;;;10.40;99.90;;;;;;6278741;22;20012;-93
2023/03/25 00:42:24;;;;;;;14.48;2.50;;;10.40;99.90;;;;;;6276756;22;20328;-93
2023/03/25 00:44:51;;;;;;;14.38;2.50;;;10.30;99.90;;;;;;6277576;22;20023;-96
2023/03/25 00:47:17;;;;;;;14.30;2.30;;;10.30;99.90;;;;;;6278988;22;20012;-95
2023/03/25 00:49:43;;;;;;;14.18;2.25;;;10.30;99.90;;;;;;6278095;22;20106;-94
2023/03/25 00:52:09;;;;;;;15.68;2.22;;;10.30;99.90;;;;;;6276817;22;20019;-94
2023/03/25 00:54:36;;;;;;;12.60;1.90;;;10.30;99.90;;;;;;6277564;22;20015;-94
2023/03/25 00:57:02;;;;;;;13.73;1.95;;;10.30;99.90;;;;;;6276901;22;20012;-94
2023/03/25 00:59:28;;;;;;;13.95;1.92;;;10.20;99.90;;;;;;6279589;22;20022;-95
2023/03/25 01:01:55;;;;;;;12.80;2.28;;;10.20;99.90;;;;;;6279644;22;20018;-94
2023/03/25 01:04:20;;;;;;;13.35;2.28;;;10.20;99.90;;;;;;6277894;22;20404;-93
2023/03/25 01:06:50;;;;;;;16.73;2.33;;;10.20;99.90;;;;;;6279177;22;20015;-93
2023/03/25 01:09:18;;;;;;;10.68;2.33;;;10.10;99.90;;;;;;6280213;22;20018;-93
2023/03/25 01:11:45;;;;;;;15.48;2.33;;;10.10;99.90;;;;;;6253398;22;20451;-93
2023/03/25 01:14:15;;;;;;;11.90;2.10;;;10.10;99.90;;;;;;6278073;22;20016;-95
2023/03/25 01:16:41;;;;;;;12.77;2.20;;;10.10;99.90;;;;;;6279780;22;20008;-96
2023/03/25 01:19:07;;;;;;;13.23;2.15;;;10.00;99.90;;;;;;6278086;22;20090;-93
2023/03/25 01:21:35;;;;;;;12.07;2.00;;;10.00;99.90;;;;;;6277176;22;20376;-94
2023/03/25 01:24:01;;;;;;;13.02;2.20;;;10.00;99.90;;;;;;6276809;22;20793;-94
2023/03/25 01:26:26;;;;;;;11.82;2.25;;;10.00;99.90;;;;;;6278808;22;20011;-94
2023/03/25 01:28:52;;;;;;;17.30;2.33;;;10.00;99.90;;;;;;6278311;22;20379;-93
2023/03/25 01:31:18;;;;;;;14.77;2.70;;;9.90;99.90;;;;;;6279932;22;20012;-94
2023/03/25 01:33:44;;;;;;;11.68;2.33;;;10.00;99.90;;;;;;6280339;22;20012;-95
2023/03/25 01:36:11;;;;;;;14.77;2.25;;;9.90;99.90;;;;;;6280253;22;20012;-95
2023/03/25 01:38:38;;;;;;;12.77;2.15;;;9.90;99.90;;;;;;6280708;22;20509;-95
2023/03/25 01:41:05;;;;;;;12.30;2.67;;;9.90;99.90;;;;;;6278583;22;20339;-95
2023/03/25 01:43:31;;;;;;;15.73;2.35;;;9.90;99.90;;;;;;6279614;22;20039;-94
2023/03/25 01:45:57;;;;;;;16.33;2.80;;;9.90;99.90;;;;;;6278248;22;20012;-94
2023/03/25 01:48:26;;;;;;;14.45;2.45;;;9.80;99.90;;;;;;6278472;22;20038;-95
2023/03/25 01:50:57;;;;;;;16.90;2.30;;;9.80;99.90;;;;;;6279112;22;20046;-94
2023/03/25 01:53:26;;;;;;;14.45;2.60;;;9.80;99.90;;;;;;6277673;22;20077;-94
2023/03/25 01:55:53;;;;;;;12.48;2.45;;;9.80;99.90;;;;;;6279258;22;20511;-94
2023/03/25 01:58:20;;;;;;;14.38;2.45;;;9.80;99.90;;;;;;6277426;22;20379;-94
2023/03/25 02:00:49;;;;;;;17.38;2.33;;;9.80;99.90;;;;;;6277944;22;20012;-95
2023/03/25 02:03:18;;;;;;;15.68;2.40;;;9.80;99.90;;;;;;6278575;22;20447;-96
2023/03/25 02:05:57;;;;;;;18.65;2.60;;;9.80;99.90;;;;;;6278715;22;20015;-95
2023/03/25 02:08:24;;;;;;;15.50;2.13;;;9.80;99.90;;;;;;6278570;22;20031;-94
2023/03/25 02:10:51;;;;;;;16.63;2.55;;;9.70;99.90;;;;;;6279763;22;20022;-95
2023/03/25 02:13:18;;;;;;;20.98;2.92;;;9.70;99.90;;;;;;6278677;22;20020;-95
2023/03/25 02:16:04;;;;;;;17.88;2.80;;;9.70;99.90;;;;;;6278444;22;20344;-95
2023/03/25 02:18:53;;;;;;;12.93;2.47;;;9.70;99.90;;;;;;6279463;22;20019;-96
2023/03/25 02:21:44;;;;;;;17.05;2.72;;;9.70;99.90;;;;;;6279061;22;20023;-94
2023/03/25 02:24:45;;;;;;;16.77;2.85;;;9.70;99.90;;;;;;6278704;22;20019;-95
2023/03/25 02:27:25;;;;;;;20.58;3.28;;;9.70;99.90;;;;;;6258172;22;20023;-94
2023/03/25 02:30:19;;;;;;;12.48;2.33;;;9.60;99.90;;;;;;6279004;22;20079;-95
2023/03/25 02:32:45;;;;;;;19.92;3.00;;;9.60;99.90;;;;;;6279247;22;20020;-96
2023/03/25 02:35:51;;;;;;;19.10;2.63;;;9.60;99.90;;;;;;6276828;22;20018;-94
2023/03/25 02:38:35;;;;;;;20.02;3.30;;;9.60;99.90;;;;;;6277291;22;20037;-95
2023/03/25 02:41:13;;;;;;;20.67;2.78;;;9.60;99.90;;;;;;6277322;22;20019;-95
2023/03/25 02:43:52;;;;;;;26.80;3.53;;;9.60;99.90;;;;;;6278994;22;20019;-96
2023/03/25 02:46:18;;;;;;;16.13;2.85;;;9.60;99.90;;;;;;6278776;22;20008;-95
2023/03/25 02:49:11;;;;;;;15.70;3.00;;;9.60;99.90;;;;;;6279211;22;20053;-96
2023/03/25 02:51:44;;;;;;;18.70;3.13;;;9.60;99.90;;;;;;6279191;22;20012;-95
2023/03/25 02:54:12;;;;;;;17.77;3.13;;;9.60;99.90;;;;;;6276938;22;20011;-96
2023/03/25 02:56:43;;;;;;;19.00;3.00;;;9.60;99.90;;;;;;6278223;22;20012;-94
2023/03/25 02:59:13;;;;;;;23.63;3.13;;;9.60;99.90;;;;;;6278330;22;20439;-94
2023/03/25 03:01:39;;;;;;;16.27;2.70;;;9.60;99.90;;;;;;6279231;22;20012;-96
2023/03/25 03:04:06;;;;;;;18.15;2.65;;;9.60;99.90;;;;;;6278054;22;20022;-96
2023/03/25 03:06:38;;;;;;;19.88;3.20;;;9.60;99.90;;;;;;6277512;22;20008;-95
2023/03/25 03:09:24;;;;;;;16.20;2.45;;;9.60;99.90;;;;;;6276811;22;20408;-94
2023/03/25 03:12:16;;;;;;;18.33;3.15;;;9.60;99.90;;;;;;6277239;22;20015;-94
2023/03/25 03:15:00;;;;;;;20.50;3.03;;;9.50;99.90;;;;;;6278878;22;20019;-95
2023/03/25 03:17:37;;;;;;;16.70;2.95;;;9.50;99.90;;;;;;6276994;22;20012;-96
2023/03/25 03:20:32;;;;;;;21.88;3.13;;;9.50;99.90;;;;;;6278915;22;20015;-96
2023/03/25 03:23:11;;;;;;;13.50;2.13;;;9.60;99.90;;;;;;6278576;22;20020;-96
2023/03/25 03:25:52;;;;;;;16.65;2.83;;;9.60;99.90;;;;;;6270892;22;20016;-95
2023/03/25 03:28:46;;;;;;;21.52;2.75;;;9.50;99.90;;;;;;6277120;22;20026;-93
2023/03/25 03:32:10;;;;;;;15.57;2.38;;;9.60;99.90;;;;;;6276838;22;20034;-96
2023/03/25 03:34:45;;;;;;;17.70;3.40;;;9.50;99.90;;;;;;6251839;22;20019;-95
2023/03/25 03:37:27;;;;;;;26.15;3.58;;;9.50;99.90;;;;;;6276710;22;20026;-95
2023/03/25 03:39:54;;;;;;;23.23;3.40;;;9.50;99.90;;;;;;6277659;22;20173;-94
2023/03/25 03:42:46;;;;;;;18.38;3.10;;;9.50;99.90;;;;;;6277271;22;20016;-96
2023/03/25 03:45:17;;;;;;;16.20;2.42;;;9.50;99.90;;;;;;6268253;22;20019;-96
2023/03/25 03:47:47;;;;;;;20.83;3.47;;;9.40;99.90;;;;;;6277281;22;20095;-96
2023/03/25 03:50:26;;;;;;;17.35;2.65;;;9.50;99.90;;;;;;6277612;22;20031;-96
2023/03/25 03:53:08;;;;;;;17.75;2.70;;;9.40;99.90;;;;;;6280415;22;20023;-96
2023/03/25 03:55:40;;;;;;;20.02;3.40;;;9.50;99.90;;;;;;6278590;22;20424;-96
2023/03/25 03:58:32;;;;;;;13.52;2.50;;;9.50;99.90;;;;;;6277612;22;20012;-95
2023/03/25 04:01:08;;;;;;;15.40;3.10;;;9.40;99.90;;;;;;6277068;22;20019;-95
2023/03/25 04:03:52;;;;;;;20.48;2.90;;;9.50;99.90;;;;;;6277055;22;20102;-96
2023/03/25 04:06:24;;;;;;;21.40;3.15;;;9.40;99.90;;;;;;6276821;22;20015;-95
2023/03/25 04:08:58;;;;;;;17.83;3.03;;;9.40;99.90;;;;;;6280179;22;20054;-95
2023/03/25 04:11:30;;;;;;;16.00;3.15;;;9.40;99.90;;;;;;6278199;22;20091;-95
2023/03/25 04:13:58;;;;;;;18.52;3.20;;;9.40;99.90;;;;;;6280949;22;20012;-96
2023/03/25 04:16:24;;;;;;;17.58;3.40;;;9.40;99.90;;;;;;6283998;22;20020;-96
2023/03/25 04:18:52;;;;;;;22.33;3.10;;;9.40;99.90;;;;;;6289945;22;20019;-96
2023/03/25 04:21:19;;;;;;;14.50;2.70;;;9.40;99.90;;;;;;6286192;22;20020;-96
2023/03/25 04:23:45;;;;;;;18.10;3.67;;;9.40;99.90;;;;;;6281034;22;20026;-96
2023/03/25 04:26:12;;;;;;;19.48;3.85;;;9.40;99.90;;;;;;6280621;22;20343;-95
2023/03/25 04:28:40;;;;;;;18.65;3.20;;;9.40;99.90;;;;;;6280527;22;20011;-96
2023/03/25 04:31:15;;;;;;;16.30;3.03;;;9.30;99.90;;;;;;6281395;22;20022;-95
2023/03/25 04:33:45;;;;;;;16.20;2.75;;;9.30;99.90;;;;;;6284061;22;20011;-95
2023/03/25 04:36:12;;;;;;;13.77;3.00;;;9.30;99.90;;;;;;6282924;22;20012;-96
2023/03/25 04:38:39;;;;;;;15.10;3.35;;;9.30;99.90;;;;;;6280421;22;20049;-96
2023/03/25 04:41:05;;;;;;;17.17;3.58;;;9.30;99.90;;;;;;6283227;22;20022;-96
2023/03/25 04:43:31;;;;;;;17.77;2.70;;;9.30;99.90;;;;;;6286996;22;20019;-95
2023/03/25 04:45:59;;;;;;;18.67;3.40;;;9.30;99.90;;;;;;6297578;22;20022;-96
2023/03/25 04:48:30;;;;;;;14.63;2.90;;;9.30;99.90;;;;;;6288343;22;20016;-95
2023/03/25 04:51:02;;;;;;;20.00;3.30;;;9.30;99.90;;;;;;6286561;22;20012;-96
2023/03/25 04:53:33;;;;;;;12.10;2.58;;;9.20;99.90;;;;;;6289417;22;20094;-95
2023/03/25 04:55:59;;;;;;;17.08;3.25;;;9.20;99.90;;;;;;6285201;22;20016;-95
2023/03/25 04:58:28;;;;;;;20.05;3.15;;;9.20;99.90;;;;;;6285672;22;20020;-93
2023/03/25 05:00:54;;;;;;;15.35;2.90;;;9.30;99.90;;;;;;6280005;22;20016;-95
2023/03/25 05:03:23;;;;;;;18.67;3.05;;;9.30;99.90;;;;;;6291906;22;20026;-96
2023/03/25 05:05:50;;;;;;;17.73;3.55;;;9.20;99.90;;;;;;6291167;22;20073;-95
2023/03/25 05:08:17;;;;;;;17.27;3.15;;;9.30;99.90;;;;;;6285015;22;20015;-95
2023/03/25 05:10:43;;;;;;;17.13;2.78;;;9.20;99.90;;;;;;6281180;22;20012;-96
2023/03/25 05:13:09;;;;;;;16.52;3.03;;;9.20;99.90;;;;;;6284380;22;20019;-96
2023/03/25 05:15:38;;;;;;;18.30;3.42;;;9.20;99.90;;;;;;6288169;22;20039;-95
2023/03/25 05:18:10;;;;;;;19.25;3.58;;;9.20;99.90;;;;;;6294182;22;20099;-96
2023/03/25 05:20:39;;;;;;;26.58;4.07;;;9.20;99.90;;;;;;6265143;22;20015;-96
2023/03/25 05:23:10;;;;;;;17.45;3.20;;;9.20;99.90;;;;;;6299987;22;20428;-96
2023/03/25 05:25:37;;;;;;;18.83;3.58;;;9.20;99.90;;;;;;6289433;22;20085;-96
2023/03/25 05:28:08;;;;;;;22.30;3.05;;;9.10;99.90;;;;;;6290937;22;20016;-96
2023/03/25 05:30:40;;;;;;;20.55;3.67;;;9.20;99.90;;;;;;6291966;22;20015;-96
2023/03/25 05:33:10;;;;;;;22.35;3.45;;;9.10;99.90;;;;;;6287679;22;20019;-95
2023/03/25 05:35:39;;;;;;;19.98;3.10;;;9.20;99.90;;;;;;6292118;22;20034;-96
2023/03/25 05:38:07;;;;;;;22.45;3.35;;;9.10;99.90;;;;;;6285882;22;20026;-96
2023/03/25 05:40:33;;;;;;;17.42;3.47;;;9.20;99.90;;;;;;6287377;22;20012;-96
2023/03/25 05:42:59;;;;;;;18.60;3.15;;;9.20;99.90;;;;;;6282231;22;20057;-96
2023/03/25 05:45:24;;;;;;;16.08;2.97;;;9.10;99.90;;;;;;6280670;22;20012;-96
2023/03/25 05:47:51;;;;;;;19.55;3.28;;;9.10;99.90;;;;;;6282237;22;20026;-96
2023/03/25 05:50:16;;;;;;;20.85;3.33;;;9.20;99.90;;;;;;6281266;22;20012;-96
2023/03/25 05:52:42;;;;;;;24.75;3.83;;;9.10;99.90;;;;;;6280119;22;20106;-96
2023/03/25 05:55:20;;;;;;;19.17;3.38;;;9.10;99.90;;;;;;6280825;22;20020;-95
2023/03/25 05:57:47;;;;;;;13.13;3.30;;;9.10;99.90;;;;;;6284911;22;20070;-96
2023/03/25 06:00:14;;;;;;;27.33;3.67;;;9.10;99.90;;;;;;6280013;22;20030;-96
2023/03/25 06:02:41;;;;;;;20.23;3.13;;;9.10;99.90;;;;;;6284392;22;20039;-96
2023/03/25 06:05:09;;;;;;;19.75;3.15;;;9.10;99.90;;;;;;6282585;22;20016;-96
2023/03/25 06:07:38;;;;;;;19.02;3.45;;;9.10;99.90;;;;;;6287703;22;20452;-96
2023/03/25 06:10:15;;;;;;;15.75;2.80;;;9.10;99.90;;;;;;6295550;22;20339;-96
2023/03/25 06:12:45;;;;;;;18.13;3.58;;;9.10;99.90;;;;;;6288983;22;20048;-94
2023/03/25 06:15:13;;;;;;;16.60;2.70;;;9.10;99.90;;;;;;6279506;22;20007;-95
2023/03/25 06:17:39;;;;;;;25.42;3.58;;;9.20;99.90;;;;;;6280783;22;20041;-96
2023/03/25 06:20:11;;;;;;;20.85;3.50;;;9.10;99.90;;;;;;6285115;22;20015;-94
2023/03/25 06:22:44;;;;;;;23.33;3.88;;;9.10;99.90;;;;;;6283259;22;20065;-94
2023/03/25 06:25:12;;;;;;;18.25;3.08;;;9.10;99.90;;;;;;6285827;22;20022;-95
2023/03/25 06:27:40;;;;;;;19.20;3.28;;;9.10;99.90;;;;;;6293203;22;19999;-96
2023/03/25 06:30:12;;;;;;;19.52;3.40;;;9.10;99.90;;;;;;6295373;22;20015;-95
2023/03/25 06:32:38;;;;;;;25.10;3.55;;;9.10;99.90;;;;;;6296428;22;20038;-96
2023/03/25 06:35:06;;;;;;;22.27;4.10;;;9.10;99.90;;;;;;6296335;22;20383;-96
2023/03/25 06:37:33;;;;;;;22.70;3.67;;;9.10;99.90;;;;;;6291587;22;20090;-96
2023/03/25 06:39:59;;;;;;;21.77;3.40;;;9.10;99.90;;;;;;6291923;22;20050;-96
2023/03/25 06:42:28;;;;;;;19.15;3.47;;;9.10;99.90;;;;;;6289687;22;20011;-96
2023/03/25 06:44:54;;;;;;;20.48;3.35;;;9.10;99.90;;;;;;6292454;22;20015;-96
2023/03/25 06:47:21;;;;;;;21.02;3.95;;;9.10;99.90;;;;;;6291594;22;20022;-96
2023/03/25 06:49:47;;;;;;;20.83;3.65;;;9.10;99.90;;;;;;6292151;22;20019;-95
2023/03/25 06:52:14;;;;;;;23.45;3.42;;;9.10;99.90;;;;;;6287188;22;20181;-95
2023/03/25 06:54:40;;;;;;;25.48;4.10;;;9.10;99.90;;;;;;6261900;22;20027;-95
2023/03/25 06:57:06;;;;;;;18.27;3.25;;;9.10;99.90;;;;;;6287009;22;20082;-96
2023/03/25 06:59:32;;;;;;;17.23;3.25;;;9.10;99.90;;;;;;6283580;22;20030;-96
2023/03/25 07:01:58;;;;;;;23.77;3.85;;;9.10;99.90;;;;;;6281939;22;20012;-95
2023/03/25 07:04:24;;;;;;;21.92;3.53;;;9.10;99.90;;;;;;6282160;22;20085;-95
2023/03/25 07:06:50;;;;;;;21.88;3.70;;;9.10;99.90;;;;;;6282176;22;20074;-95
2023/03/25 07:09:15;;;;;;;19.50;3.33;;;9.10;99.90;;;;;;6281385;22;20011;-96
2023/03/25 07:11:41;;;;;;;18.25;3.20;;;9.10;99.90;;;;;;6280881;22;20050;-94
2023/03/25 07:14:09;;;;;;;25.67;3.40;;;9.20;99.90;;;;;;6280062;22;20012;-96
2023/03/25 07:16:34;;;;;;;19.70;3.53;;;9.20;99.90;;;;;;6280279;22;20456;-94
2023/03/25 07:19:00;;;;;;;26.40;3.97;;;9.20;99.90;;;;;;6279807;22;20095;-94
2023/03/25 07:21:26;;;;;;;21.60;3.13;;;9.20;99.90;;;;;;6283269;22;20054;-95
2023/03/25 07:23:52;;;;;;;24.27;3.38;;;9.30;99.90;;;;;;6283311;22;20015;-96
2023/03/25 07:26:18;;;;;;;23.58;3.47;;;9.30;99.90;;;;;;6281290;22;20015;-95
2023/03/25 07:28:46;;;;;;;20.90;4.25;;;9.30;99.90;;;;;;6285241;22;20077;-95
2023/03/25 07:31:13;;;;;;;20.48;2.95;;;9.30;99.90;;;;;;6279762;22;20016;-93
2023/03/25 07:33:39;;;;;;;24.95;4.03;;;9.30;99.90;;;;;;6285098;22;20020;-94
2023/03/25 07:36:10;;;;;;;21.25;3.20;;;9.30;99.90;;;;;;6279292;22;20498;-93
2023/03/25 07:38:36;;;;;;;18.48;3.33;;;9.30;99.90;;;;;;6278833;22;20015;-93
2023/03/25 07:41:09;;;;;;;17.90;3.40;;;9.30;99.90;;;;;;6278633;22;20018;-91
2023/03/25 07:43:35;;;;;;;18.38;3.55;;;9.20;99.90;;;;;;6277459;22;20327;-94
2023/03/25 07:46:05;;;;;;;21.73;3.33;;;9.20;99.90;;;;;;6280174;22;20051;-95
2023/03/25 07:48:35;;;;;;;24.25;4.00;;;9.20;99.90;;;;;;6283515;22;20054;-95
2023/03/25 08:10:33;;;;;;;19.55;3.35;;;9.10;99.90;;;;;;6287705;22;20035;-94
2023/03/25 08:12:59;;;;;;;17.25;3.08;;;9.10;99.90;;;;;;6255569;22;20075;-94
2023/03/25 08:15:25;;;;;;;22.48;3.35;;;9.10;99.90;;;;;;6281122;22;20019;-92
2023/03/25 08:17:51;;;;;;;17.77;3.22;;;9.10;99.90;;;;;;6281805;22;20039;-94
2023/03/25 08:20:17;;;;;;;18.15;3.20;;;9.10;99.90;;;;;;6281405;22;20023;-95
2023/03/25 08:22:44;;;;;;;20.73;3.85;;;9.10;99.90;;;;;;6254918;22;20012;-89
2023/03/25 08:25:10;;;;;;;23.48;3.88;;;9.10;99.90;;;;;;6279068;22;20103;-90
2023/03/25 08:27:36;;;;;;;20.90;3.42;;;9.10;99.90;;;;;;6286428;22;20098;-94
2023/03/25 08:40:41;;;;;;;23.23;3.65;;;9.20;99.90;;;;;;6278077;22;20016;-93
2023/03/25 08:59:35;;;;;;;26.30;5.03;;;9.40;99.90;;;;;;6305375;22;20028;-94
2023/03/25 09:05:30;;;;;;;23.48;4.00;;;9.40;99.90;;;;;;6284115;22;20023;-94
2023/03/25 09:08:26;;;;;;;17.80;3.63;;;9.50;99.90;;;;;;6232789;22;20059;-96
2023/03/25 09:15:35;;;;;;;19.65;3.63;;;9.50;99.90;;;;;;6126544;23;20457;-92
2023/03/25 09:18:37;;;;;;;;;;;;;;;;;;;;;
2023/03/25 09:26:43;;;;;;;23.70;3.95;;;9.60;99.90;;;;;;6307281;22;20042;-96
2023/03/25 09:37:39;;;;;;;;;;;;;;;;;;;;;
2023/03/25 09:41:09;;;;;;;21.63;3.65;;;9.60;99.90;;;;;;6294304;22;20020;-96
2023/03/25 09:46:44;;;;;;;15.55;2.92;;;9.60;99.90;;;;;;6290853;22;20019;-93
2023/03/25 09:49:41;;;;;;;16.63;3.03;;;9.70;99.90;;;;;;6292766;22;20022;-96
2023/03/25 09:52:40;;;;;;;18.42;3.22;;;9.70;99.90;;;;;;6293725;22;20086;-95
2023/03/25 09:55:37;;;;;;;22.23;3.20;;;9.70;99.90;;;;;;6296024;22;20064;-95
2023/03/25 09:59:01;;;;;;;22.23;2.90;;;9.70;99.90;;;;;;6298161;22;20054;-96
2023/03/25 10:02:10;;;;;;;22.63;3.30;;;9.70;99.90;;;;;;6277143;22;20088;-96
2023/03/25 10:09:14;;;;;;;19.38;3.00;;;9.80;99.90;;;;;;6295640;22;20017;-94
2023/03/25 10:19:40;;;;;;;;;;;;;;;;;;;;;
2023/03/25 10:23:37;;;;;;;23.63;3.90;;;9.90;99.90;;;;;;6316234;22;20026;-96
2023/03/25 10:26:48;;;;;;;15.77;3.13;;;9.80;99.90;;;;;;6292589;22;20313;-94
2023/03/25 10:29:42;;;;;;;19.88;3.58;;;9.90;99.90;;;;;;6317465;22;20022;-96
2023/03/25 10:32:17;;;;;;;19.50;3.17;;;9.90;99.90;;;;;;6311528;22;20058;-93
2023/03/25 10:35:35;;;;;;;21.48;3.20;;;9.90;99.90;;;;;;6310498;22;20020;-95
2023/03/25 10:38:06;;;;;;;22.63;3.53;;;9.90;99.90;;;;;;6260621;22;20336;-96
2023/03/25 10:41:11;;;;;;;21.67;3.35;;;9.90;99.90;;;;;;6270896;22;20084;-94
2023/03/25 10:43:49;;;;;;;20.27;3.50;;;9.90;99.90;;;;;;6279670;22;20025;-96
2023/03/25 10:46:38;;;;;;;17.38;3.30;;;10.00;99.90;;;;;;6291952;22;20056;-95
2023/03/25 10:49:30;;;;;;;23.50;3.90;;;10.00;99.90;;;;;;6315229;22;20019;-95
2023/03/25 10:51:58;;;;;;;22.88;3.95;;;10.00;99.90;;;;;;6297016;22;20088;-96
2023/03/25 10:54:55;;;;;;;21.63;4.43;;;10.00;99.90;;;;;;6289466;22;20015;-96
2023/03/25 11:00:31;;;;;;;20.75;3.22;;;10.10;99.90;;;;;;6289980;22;20470;-96
2023/03/25 11:03:26;;;;;;;18.33;3.40;;;10.20;99.90;;;;;;6293852;22;20079;-96
2023/03/25 11:06:28;;;;;;;21.73;3.45;;;10.20;99.90;;;;;;6292749;22;20003;-95
2023/03/25 11:09:38;;;;;;;22.08;3.58;;;10.10;99.90;;;;;;6277885;22;20063;-95
2023/03/25 11:12:05;;;;;;;22.65;3.60;;;10.10;99.90;;;;;;6293348;22;20011;-94
2023/03/25 11:14:40;;;;;;;22.42;3.88;;;10.20;99.90;;;;;;6292439;22;20015;-95
2023/03/25 11:20:38;;;;;;;16.85;2.85;;;10.30;99.90;;;;;;6296571;22;20339;-95
2023/03/25 11:27:10;;;;;;;22.65;4.15;;;10.30;99.90;;;;;;6291256;22;20028;-95
2023/03/25 11:30:32;;;;;;;23.88;4.20;;;10.40;99.90;;;;;;6303220;22;20106;-96
2023/03/25 11:33:18;;;;;;;23.48;4.20;;;10.40;99.90;;;;;;6348858;22;20002;-95
2023/03/25 11:35:47;;;;;;;20.67;4.05;;;10.50;99.90;;;;;;6318385;22;20042;-96
2023/03/25 11:38:38;;;;;;;20.85;3.40;;;10.50;99.90;;;;;;6348123;22;20037;-96
2023/03/25 11:41:06;;;;;;;20.52;4.07;;;10.50;99.90;;;;;;6324207;22;20068;-95
2023/03/25 11:44:10;;;;;;;21.58;3.60;;;10.50;99.90;;;;;;6353879;22;20011;-96
2023/03/25 11:46:42;;;;;;;21.63;3.40;;;10.50;99.90;;;;;;6316563;22;20011;-95
2023/03/25 11:49:22;;;;;;;22.40;3.80;;;10.60;99.90;;;;;;6316591;22;20071;-96
2023/03/25 11:55:32;;;;;;;23.20;4.38;;;10.60;99.90;;;;;;6322051;22;20068;-95
2023/03/25 11:58:13;;;;;;;;;;;;;;;;;;;;;
2023/03/25 12:05:18;;;;;;;24.08;5.85;;;10.50;99.90;;;;;;6246001;22;20030;-95
2023/03/25 12:08:01;;;;;;;24.92;6.22;;;10.50;99.90;;;;;;6315423;22;20468;-96
2023/03/25 12:10:51;;;;;;;23.58;5.97;;;10.50;99.90;;;;;;6315704;22;20388;-95
2023/03/25 12:17:30;;;;;;;25.10;3.55;;;10.60;99.90;;;;;;6294791;22;20018;-95
2023/03/25 12:20:51;;;;;;;;;;;;;;;;;;;;;
2023/03/25 12:24:04;;;;;;;18.38;3.15;;;10.60;99.90;;;;;;6308334;22;20100;-95
2023/03/25 12:27:17;;;;;;;17.80;2.92;;;10.60;99.90;;;;;;6346458;22;20018;-96
2023/03/25 12:30:21;;;;;;;20.02;3.53;;;10.60;99.90;;;;;;6296791;22;20019;-96
2023/03/25 12:33:21;;;;;;;17.15;3.17;;;10.60;99.90;;;;;;6327797;22;20102;-96
2023/03/25 12:36:30;;;;;;;17.35;3.15;;;10.70;99.90;;;;;;6300288;22;20067;-96
2023/03/25 12:42:49;;;;;;;13.93;3.10;;;10.70;99.90;;;;;;6316196;22;20451;-96
2023/03/25 12:45:49;;;;;;;16.55;2.80;;;10.70;99.90;;;;;;6318973;22;20019;-96
2023/03/25 12:48:33;;;;;;;18.27;3.08;;;10.80;99.90;;;;;;6322960;22;20038;-96
2023/03/25 12:51:22;;;;;;;15.18;2.80;;;10.80;99.90;;;;;;6321905;22;20042;-95
2023/03/25 12:54:22;;;;;;;16.65;2.78;;;10.80;99.90;;;;;;6290512;22;20049;-96
2023/03/25 12:57:00;;;;;;;16.40;2.88;;;10.80;99.80;;;;;;6317227;22;20064;-96
2023/03/25 12:59:47;;;;;;;16.30;2.90;;;10.90;99.90;;;;;;6288351;22;20015;-95
2023/03/25 13:02:26;;;;;;;18.63;2.80;;;10.90;99.70;;;;;;6304654;22;20015;-96
2023/03/25 13:05:04;;;;;;;19.15;3.10;;;11.00;99.90;;;;;;6294493;22;20019;-96
2023/03/25 13:07:43;;;;;;;12.18;2.50;;;11.10;99.70;;;;;;6321253;22;20026;-95
2023/03/25 13:10:22;;;;;;;19.13;3.08;;;11.10;99.50;;;;;;6320567;22;20060;-96
2023/03/25 13:12:56;;;;;;;18.27;3.15;;;11.10;99.40;;;;;;6320274;22;20020;-96
2023/03/25 13:15:29;;;;;;;19.83;2.95;;;11.20;99.40;;;;;;6321097;22;20039;-96
2023/03/25 13:18:17;;;;;;;19.75;2.83;;;11.20;99.40;;;;;;6294401;22;20348;-96
2023/03/25 13:21:11;;;;;;;18.08;3.08;;;11.20;98.80;;;;;;6294407;22;20121;-96
2023/03/25 13:23:38;;;;;;;21.58;2.90;;;11.20;98.80;;;;;;6249114;22;20030;-95
2023/03/25 13:26:17;;;;;;;14.65;2.63;;;11.20;98.70;;;;;;6299907;22;20016;-96
2023/03/25 13:28:57;;;;;;;14.55;2.80;;;11.20;98.70;;;;;;6291368;22;20113;-95
2023/03/25 13:31:29;;;;;;;18.60;2.70;;;11.20;99.00;;;;;;6292600;22;20011;-96
2023/03/25 13:34:34;;;;;;;16.58;2.95;;;11.10;98.70;;;;;;6296254;22;20098;-96
2023/03/25 13:37:16;;;;;;;18.08;3.08;;;11.10;98.80;;;;;;6325952;22;20015;-96
2023/03/25 13:40:11;;;;;;;12.52;2.72;;;11.10;99.10;;;;;;6293723;22;20015;-96
2023/03/25 13:43:12;;;;;;;15.40;2.58;;;11.10;98.80;;;;;;6319790;22;20363;-95
2023/03/25 13:45:55;;;;;;;12.77;2.20;;;11.10;98.80;;;;;;6291164;22;20439;-96
2023/03/25 13:48:33;;;;;;;12.32;2.25;;;11.10;98.50;;;;;;6318220;22;20021;-96
2023/03/25 13:51:02;;;;;;;14.40;2.60;;;11.10;98.20;;;;;;6312239;22;20015;-94
2023/03/25 13:53:48;;;;;;;14.57;2.40;;;11.10;98.00;;;;;;6311088;22;20064;-96
2023/03/25 13:56:52;;;;;;;13.10;2.35;;;11.10;97.90;;;;;;6310040;22;20493;-94
2023/03/25 13:59:26;;;;;;;;;;;11.10;97.90;;;;;;6310399;22;20019;-93
2023/03/25 14:02:20;;;;;;;12.57;2.30;;;11.10;97.80;;;;;;6283568;22;19918;-94
2023/03/25 14:04:51;;;;;;;14.80;2.50;;;11.00;98.30;;;;;;6282174;22;20026;-95
2023/03/25 14:07:41;;;;;;;16.40;2.15;;;11.00;98.40;;;;;;6314213;22;20086;-96
2023/03/25 14:10:22;;;;;;;11.43;2.40;;;11.00;98.40;;;;;;6323020;22;20025;-95
2023/03/25 14:13:08;;;;;;;15.32;2.30;;;11.00;98.80;;;;;;6323109;22;20133;-94
2023/03/25 14:15:41;;;;;;;10.70;1.80;;;10.90;99.00;;;;;;6310594;22;20335;-94
2023/03/25 14:18:14;;;;;;;;;;;10.80;99.20;;;;;;6282247;22;20026;-92
2023/03/25 14:23:47;;;;;;;9.10;2.50;;;10.50;99.90;;;;;;6260136;22;20054;-90
2023/03/25 14:26:17;;;;;;;7.93;1.50;;;10.40;99.90;;;;;;6281342;22;20018;-91
2023/03/25 14:28:46;;;;;;;6.47;1.30;;;10.30;99.90;;;;;;6308077;22;20019;-91
2023/03/25 14:31:21;;;;;;;9.65;1.70;;;10.10;99.90;;;;;;6306175;22;20021;-93
2023/03/25 14:34:00;;;;;;;6.10;1.38;;;10.00;99.90;;;;;;6340686;22;20022;-90
2023/03/25 14:36:36;;;;;;;7.18;1.20;;;9.90;99.90;;;;;;6339812;22;20015;-92
2023/03/25 14:39:08;;;;;;;6.60;1.20;;;9.80;99.90;;;;;;6340146;22;20064;-91
2023/03/25 14:41:54;;;;;;;3.50;0.77;;;9.80;99.90;;;;;;6312716;22;20025;-91
2023/03/25 14:44:20;;;;;;;6.00;1.10;;;9.70;99.90;;;;;;6312466;22;20018;-91
2023/03/25 14:46:46;;;;;;;5.00;1.15;;;9.70;99.90;;;;;;6312545;22;20011;-91
2023/03/25 14:49:53;;;;;;;7.82;1.23;;;9.70;99.90;;;;;;6312409;22;20017;-91
2023/03/25 14:52:27;;;;;;;8.48;1.50;;;9.70;99.90;;;;;;6339564;22;20068;-92
2023/03/25 14:54:53;;;;;;;11.55;2.20;;;9.70;99.90;;;;;;6342766;22;20094;-94
2023/03/25 14:57:25;;;;;;;10.80;2.17;;;9.60;99.90;;;;;;6341320;22;20011;-92
2023/03/25 14:59:57;;;;;;;9.80;1.85;;;9.70;99.90;;;;;;6340199;22;20026;-91
2023/03/25 15:02:28;;;;;;;12.98;2.40;;;9.70;99.90;;;;;;6339998;22;20051;-89
2023/03/25 15:05:02;;;;;;;11.30;2.17;;;9.70;99.90;;;;;;6340613;22;20088;-90
2023/03/25 15:07:39;;;;;;;;;;;9.70;99.90;;;;;;6311687;22;20025;-91
2023/03/25 15:10:06;;;;;;;13.55;2.03;;;9.70;99.90;;;;;;6339195;22;19914;-92
2023/03/25 15:12:37;;;;;;;10.68;2.08;;;9.70;99.90;;;;;;6338954;22;20104;-92
2023/03/25 15:15:25;;;;;;;12.27;2.50;;;9.80;99.90;;;;;;6311910;22;20011;-90
2023/03/25 15:17:53;;;;;;;11.48;2.10;;;9.80;99.90;;;;;;6340419;22;20021;-92
2023/03/25 15:20:27;;;;;;;9.88;1.75;;;9.80;99.90;;;;;;6311528;22;20045;-93
2023/03/25 15:23:17;;;;;;;14.30;2.28;;;9.80;99.90;;;;;;6313196;22;20015;-93
2023/03/25 15:25:45;;;;;;;11.27;3.05;;;9.80;99.90;;;;;;6313211;22;20473;-92
2023/03/25 15:28:29;;;;;;;14.60;5.07;;;9.80;99.90;;;;;;6311930;22;20312;-93